Time;durP1;ratioP1;P1;durP2;ratioP2;P2;SDS_P1;SDS_P2;PMS_P1;PMS_P2;Temp;Humidity;BMP_temperature;BMP_pressure;BME280_temperature;BME280_humidity;BME280_pressure;Samples;Min_cycle;Max_cycle;Signal;HPM_P1;HPM_P2
2022/12/03 00:00:53;;;;;;;35.23;17.03;;;;;;;-141.97;100.00;47853.53;4996899;28;20169;-88
2022/12/03 00:03:18;;;;;;;38.67;16.77;;;;;;;-141.97;100.00;47857.38;4995259;28;20302;-88
2022/12/03 00:05:44;;;;;;;38.23;17.43;;;;;;;-141.97;100.00;47895.81;4995216;28;20297;-88
2022/12/03 00:08:09;;;;;;;35.80;17.37;;;;;;;-141.97;100.00;47876.59;4994919;28;20175;-88
2022/12/03 00:10:34;;;;;;;39.70;17.50;;;;;;;-141.97;100.00;48007.31;4994368;28;20565;-87
2022/12/03 00:13:00;;;;;;;38.27;17.50;;;;;;;-141.97;100.00;47853.53;4978140;28;20171;-88
2022/12/03 00:15:25;;;;;;;35.57;17.73;;;;;;;-141.97;100.00;47961.19;4995502;28;20321;-86
2022/12/03 00:17:51;;;;;;;36.50;17.43;;;;;;;-141.97;100.00;47936.19;4996021;28;20195;-88
2022/12/03 00:20:21;;;;;;;33.57;17.10;;;;;;;-141.97;100.00;47909.28;4995701;28;20251;-88
2022/12/03 00:22:47;;;;;;;36.67;17.40;;;;;;;-141.97;100.00;47913.13;4998069;28;20601;-87
2022/12/03 00:25:13;;;;;;;35.77;17.20;;;;;;;-141.97;100.00;47838.16;5005194;28;20702;-86
2022/12/03 00:27:38;;;;;;;33.10;16.37;;;;;;;-141.97;100.00;47970.78;5016645;28;20187;-88
2022/12/03 00:30:05;;;;;;;31.73;16.13;;;;;;;-141.97;100.00;47899.66;5003536;28;20203;-85
2022/12/03 00:32:31;;;;;;;32.17;16.30;;;;;;;-141.97;100.00;47911.19;5020216;28;20160;-86
2022/12/03 00:34:56;;;;;;;31.47;15.63;;;;;;;-141.97;100.00;47792.03;5019029;28;20175;-87
2022/12/03 00:37:21;;;;;;;29.17;15.77;;;;;;;-141.97;100.00;47880.44;5014238;28;20251;-86
2022/12/03 00:39:47;;;;;;;28.67;15.27;;;;;;;-141.97;100.00;47743.97;4996350;28;20217;-88
2022/12/03 00:42:12;;;;;;;30.43;15.50;;;;;;;-141.97;100.00;47765.09;4996299;28;20164;-89
2022/12/03 00:44:38;;;;;;;28.07;15.60;;;;;;;-141.97;100.00;47966.94;5001506;28;20171;-85
2022/12/03 00:47:03;;;;;;;29.17;15.40;;;;;;;-141.97;100.00;47888.13;5003563;28;20636;-87
2022/12/03 00:49:29;;;;;;;27.33;15.63;;;;;;;-141.97;100.00;48022.69;4995238;28;20203;-87
2022/12/03 00:51:55;;;;;;;30.53;15.03;;;;;;;-141.97;100.00;47907.34;4994988;28;20628;-88
2022/12/03 00:54:20;;;;;;;26.43;15.23;;;;;;;-141.97;100.00;47911.19;4994750;28;20246;-88
2022/12/03 00:56:46;;;;;;;27.83;14.90;;;;;;;-141.97;100.00;47976.56;4976987;28;20191;-88
2022/12/03 00:59:11;;;;;;;26.33;14.10;;;;;;;-141.97;100.00;48018.84;4994482;28;20164;-88
2022/12/03 01:01:37;;;;;;;26.43;14.50;;;;;;;-141.97;100.00;47909.28;4994615;28;20299;-88
2022/12/03 01:04:02;;;;;;;30.33;15.03;;;;;;;-141.97;100.00;47984.25;4994227;28;20219;-88
2022/12/03 01:06:27;;;;;;;32.63;14.77;;;;;;;-141.97;100.00;47924.66;4976782;28;20515;-87
2022/12/03 01:08:53;;;;;;;27.37;14.67;;;;;;;-141.97;100.00;47911.19;4993912;28;20171;-88
2022/12/03 01:11:36;;;;;;;28.40;14.40;;;;;;;-141.97;100.00;47930.41;4992499;28;20273;-87
2022/12/03 01:14:05;;;;;;;26.53;14.10;;;;;;;-141.97;100.00;47803.56;4992562;28;20628;-88
2022/12/03 01:16:32;;;;;;;30.93;15.03;;;;;;;-141.97;100.00;47817.00;4993676;28;20191;-88
2022/12/03 01:18:57;;;;;;;29.87;14.97;;;;;;;-141.97;100.00;47880.44;4993675;28;20163;-88
2022/12/03 01:21:23;;;;;;;32.43;16.13;;;;;;;-141.97;100.00;47976.56;4993677;28;20170;-88
2022/12/03 01:23:48;;;;;;;31.67;15.80;;;;;;;-141.97;100.00;47893.91;4976131;28;20178;-88
2022/12/03 01:26:13;;;;;;;44.50;19.53;;;;;;;-141.97;100.00;47970.78;4993519;28;20390;-88
2022/12/03 01:28:40;;;;;;;54.40;21.10;;;;;;;-141.97;100.00;47890.06;4993911;28;20167;-87
2022/12/03 01:33:51;;;;;;;35.37;16.67;;;;;;;-141.97;100.00;47907.34;4994059;28;20229;-88
2022/12/03 01:36:16;;;;;;;29.13;14.90;;;;;;;-141.97;100.00;47911.19;4993338;28;20198;-87
2022/12/03 01:38:42;;;;;;;26.77;14.77;;;;;;;-141.97;100.00;47934.25;4993590;28;20163;-88
2022/12/03 01:41:07;;;;;;;49.57;19.93;;;;;;;-141.97;100.00;47907.34;4993233;28;20167;-88
2022/12/03 01:43:33;;;;;;;57.40;22.00;;;;;;;-141.97;100.00;47945.81;4993236;28;20202;-88
2022/12/03 01:45:58;;;;;;;39.93;17.27;;;;;;;-141.97;100.00;47930.41;4975589;28;20167;-88
2022/12/03 01:48:24;;;;;;;34.43;15.77;;;;;;;-141.97;100.00;47768.94;4993269;28;20329;-88
2022/12/03 01:50:49;;;;;;;30.70;15.07;;;;;;;-141.97;100.00;47888.13;4993331;28;20187;-88
2022/12/03 01:53:17;;;;;;;32.20;15.13;;;;;;;-141.97;100.00;47840.06;4993359;28;20171;-88
2022/12/03 01:55:44;;;;;;;28.03;14.93;;;;;;;-141.97;100.00;47903.50;4975909;28;20633;-88
2022/12/03 01:58:13;;;;;;;36.07;16.83;;;;;;;-141.97;100.00;47790.09;4992946;28;20170;-88
2022/12/03 02:00:39;;;;;;;30.40;15.13;;;;;;;-141.97;100.00;47830.47;4992769;28;20191;-87
2022/12/03 02:03:21;;;;;;;32.23;15.87;;;;;;;-141.97;100.00;47930.41;4975551;28;20168;-88
2022/12/03 02:05:46;;;;;;;30.20;14.97;;;;;;;-141.97;100.00;47822.78;4997552;28;20164;-87
2022/12/03 02:08:32;;;;;;;27.47;14.00;;;;;;;-141.97;100.00;47884.28;4995557;28;20661;-88
2022/12/03 02:11:01;;;;;;;32.53;14.33;;;;;;;-141.97;100.00;47976.56;4991523;28;20702;-88
2022/12/03 02:13:27;;;;;;;28.43;14.37;;;;;;;-141.97;100.00;47916.97;4992732;28;20640;-87
2022/12/03 02:15:53;;;;;;;27.40;15.00;;;;;;;-141.97;100.00;47855.44;4992596;28;20250;-88
2022/12/03 02:18:18;;;;;;;31.83;14.90;;;;;;;-141.97;100.00;47903.50;4991405;28;20164;-88
2022/12/03 02:21:04;;;;;;;27.90;14.07;;;;;;;-141.97;100.00;47890.06;4993057;28;20623;-88
2022/12/03 02:23:50;;;;;;;31.77;13.97;;;;;;;-141.97;100.00;48005.38;4991212;28;20171;-88
2022/12/03 02:26:16;;;;;;;29.20;13.90;;;;;;;-141.97;100.00;47868.91;4992629;28;20227;-87
2022/12/03 02:28:41;;;;;;;32.23;14.53;;;;;;;-141.97;100.00;47926.56;4992413;28;20543;-88
2022/12/03 02:31:07;;;;;;;26.83;13.37;;;;;;;-141.97;100.00;47911.19;4992410;28;20163;-88
2022/12/03 02:33:33;;;;;;;30.50;14.27;;;;;;;-141.97;100.00;47876.59;4992465;28;20178;-87
2022/12/03 02:35:58;;;;;;;36.77;14.90;;;;;;;-141.97;100.00;47842.00;4992367;28;20199;-88
2022/12/03 02:38:26;;;;;;;33.03;14.53;;;;;;;-141.97;100.00;47903.50;4992245;28;20177;-88
2022/12/03 02:40:55;;;;;;;33.20;15.00;;;;;;;-141.97;100.00;47911.19;4975657;28;20218;-88
2022/12/03 02:43:22;;;;;;;33.70;14.33;;;;;;;-141.97;100.00;47903.50;4975434;28;20198;-88
2022/12/03 02:45:52;;;;;;;32.33;14.97;;;;;;;-141.97;100.00;47795.88;4992556;28;20624;-87
2022/12/03 02:48:38;;;;;;;35.50;14.93;;;;;;;-141.97;100.00;47872.75;4992410;28;20190;-87
2022/12/03 02:51:07;;;;;;;41.30;15.40;;;;;;;-141.97;100.00;47851.59;4991846;28;20674;-88
2022/12/03 02:53:41;;;;;;;34.00;14.70;;;;;;;-141.97;100.00;47907.34;4990701;28;20555;-87
2022/12/03 02:56:08;;;;;;;39.67;16.67;;;;;;;-141.97;100.00;47932.34;4992015;28;20230;-88
2022/12/03 02:58:34;;;;;;;51.73;18.87;;;;;;;-141.97;100.00;47911.19;4991426;28;20175;-87
2022/12/03 03:01:02;;;;;;;47.70;17.70;;;;;;;-141.97;100.00;47916.97;4990918;28;20167;-88
2022/12/03 03:03:29;;;;;;;48.80;17.17;;;;;;;-141.97;100.00;47974.63;4974588;28;20646;-88
2022/12/03 03:05:55;;;;;;;52.13;17.43;;;;;;;-141.97;100.00;47824.69;4991881;28;20160;-87
2022/12/03 03:08:23;;;;;;;56.97;19.20;;;;;;;-141.97;100.00;47742.03;4971349;28;20178;-88
2022/12/03 03:10:49;;;;;;;59.43;20.13;;;;;;;-141.97;100.00;47932.34;4972738;28;20168;-88
2022/12/03 03:13:17;;;;;;;65.43;20.27;;;;;;;-141.97;100.00;47961.19;4955180;28;20234;-87
2022/12/03 03:15:43;;;;;;;66.67;20.60;;;;;;;-141.97;100.00;47924.66;4955019;28;20172;-87
2022/12/03 03:18:10;;;;;;;60.37;20.70;;;;;;;-141.97;100.00;47938.09;4954889;28;20267;-87
2022/12/03 03:20:36;;;;;;;70.77;20.20;;;;;;;-141.97;100.00;47974.63;4954900;28;20629;-87
2022/12/03 03:23:12;;;;;;;66.80;21.27;;;;;;;-141.97;100.00;47863.13;4972227;28;20247;-87
2022/12/03 03:25:39;;;;;;;65.53;21.30;;;;;;;-141.97;100.00;47916.97;4972141;28;20274;-87
2022/12/03 03:28:06;;;;;;;62.90;21.37;;;;;;;-141.97;100.00;47897.75;4970926;28;20176;-87
2022/12/03 03:30:34;;;;;;;71.17;20.60;;;;;;;-141.97;100.00;47834.31;4971138;28;20164;-89
2022/12/03 03:32:59;;;;;;;61.07;19.50;;;;;;;-141.97;100.00;47843.91;4972303;28;20168;-88
2022/12/03 03:35:25;;;;;;;59.87;19.17;;;;;;;-141.97;100.00;47911.19;4972302;28;20310;-87
2022/12/03 03:37:52;;;;;;;64.63;19.30;;;;;;;-141.97;100.00;48011.16;4972352;28;20191;-87
2022/12/03 03:40:19;;;;;;;61.00;19.43;;;;;;;-141.97;100.00;47870.81;4972033;28;20682;-87
2022/12/03 03:42:45;;;;;;;55.43;18.37;;;;;;;-141.97;100.00;47763.19;4972208;28;20204;-87
2022/12/03 03:45:11;;;;;;;60.50;18.80;;;;;;;-141.97;100.00;47970.78;4955096;28;20207;-87
2022/12/03 03:47:37;;;;;;;66.63;19.10;;;;;;;-141.97;100.00;47930.41;4972208;28;20188;-87
2022/12/03 03:50:03;;;;;;;56.17;18.03;;;;;;;-141.97;100.00;47738.19;4972225;28;20164;-87
2022/12/03 03:52:29;;;;;;;55.33;16.57;;;;;;;-141.97;100.00;47811.25;4972024;28;20209;-87
2022/12/03 03:54:54;;;;;;;55.27;16.03;;;;;;;-141.97;100.00;47926.56;4972333;28;20246;-87
2022/12/03 03:57:20;;;;;;;50.30;17.03;;;;;;;-141.97;100.00;47970.78;4954913;28;20207;-87
2022/12/03 03:59:45;;;;;;;50.00;17.17;;;;;;;-141.97;100.00;47726.66;4972236;28;20230;-88
2022/12/03 04:02:23;;;;;;;56.37;17.93;;;;;;;-141.97;100.00;47924.66;4972180;28;20614;-87
2022/12/03 04:04:49;;;;;;;60.87;18.17;;;;;;;-141.97;100.00;47934.25;4970815;28;20246;-87
2022/12/03 04:07:15;;;;;;;54.10;16.63;;;;;;;-141.97;100.00;47845.84;4954646;28;20211;-87
2022/12/03 04:09:40;;;;;;;50.83;17.23;;;;;;;-141.97;100.00;47878.53;4973094;28;20691;-87
2022/12/03 04:14:50;;;;;;;56.83;18.17;;;;;;;-141.97;100.00;47965.03;4976436;28;20237;-88
2022/12/03 04:17:15;;;;;;;59.80;17.43;;;;;;;-141.97;100.00;47870.81;4975475;28;20192;-88
2022/12/03 04:19:40;;;;;;;55.17;17.63;;;;;;;-141.97;100.00;47934.25;4975569;28;20168;-88
2022/12/03 04:24:50;;;;;;;57.57;18.30;;;;;;;-141.97;100.00;47941.94;4975265;28;20198;-88
2022/12/03 04:29:59;;;;;;;61.93;19.23;;;;;;;-141.97;100.00;47916.97;4975714;28;20175;-87
2022/12/03 04:37:53;;;;;;;75.00;21.00;;;;;;;-141.97;100.00;47911.19;4975011;28;20207;-88
2022/12/03 04:43:02;;;;;;;70.67;21.43;;;;;;;-141.97;100.00;47907.34;4975229;28;20171;-87
2022/12/03 04:45:27;;;;;;;77.03;22.50;;;;;;;-141.97;100.00;47897.75;4957888;28;20262;-88
2022/12/03 04:47:53;;;;;;;82.43;22.87;;;;;;;-141.97;100.00;47855.44;4974827;28;20226;-89
2022/12/03 04:50:18;;;;;;;72.40;22.07;;;;;;;-141.97;100.00;47895.81;4974744;28;20180;-88
2022/12/03 04:52:44;;;;;;;70.43;21.07;;;;;;;-141.97;100.00;47928.50;4957480;28;20180;-89
2022/12/03 04:55:09;;;;;;;74.67;21.53;;;;;;;-141.97;100.00;47870.81;4981962;28;20223;-86
2022/12/03 04:57:35;;;;;;;78.03;21.23;;;;;;;-141.97;100.00;47865.06;4958817;28;20203;-88
2022/12/03 05:00:00;;;;;;;89.47;22.63;;;;;;;-141.97;100.00;47909.28;4957777;28;20262;-89
2022/12/03 05:02:25;;;;;;;99.00;22.60;;;;;;;-141.97;100.00;47895.81;4973393;28;20562;-89
2022/12/03 05:04:51;;;;;;;93.90;21.60;;;;;;;-141.97;100.00;48011.16;4974793;28;20164;-88
2022/12/03 05:07:16;;;;;;;83.77;22.17;;;;;;;-141.97;100.00;48001.53;4982312;28;20171;-88
2022/12/03 05:09:41;;;;;;;98.60;22.37;;;;;;;-141.97;100.00;47984.25;4978180;28;20600;-89
2022/12/03 05:12:07;;;;;;;98.07;22.10;;;;;;;-141.97;100.00;47761.25;4984418;28;20167;-88
2022/12/03 05:14:32;;;;;;;118.70;35.47;;;;;;;-141.97;100.00;47932.34;4979487;28;20640;-89
2022/12/03 05:16:58;;;;;;;125.20;33.17;;;;;;;-141.97;100.00;47905.44;4975783;28;20198;-88
2022/12/03 05:20:40;;;;;;;666.60;298.67;;;;;;;-141.97;100.00;47968.88;4975393;28;20160;-88
2022/12/03 05:22:08;;;;;;;138.83;43.53;;;;;;;-141.97;100.00;47899.66;4974436;28;20172;-88
2022/12/03 05:24:34;;;;;;;135.53;38.67;;;;;;;-141.97;100.00;47840.06;4975483;28;20191;-90
2022/12/03 05:26:59;;;;;;;81.23;21.50;;;;;;;-141.97;100.00;48030.38;4973715;28;20307;-88
2022/12/03 05:29:24;;;;;;;111.83;33.93;;;;;;;-141.97;100.00;47932.34;4957208;28;21100;-88
2022/12/03 05:31:50;;;;;;;257.03;114.27;;;;;;;-141.97;100.00;47888.13;4974654;28;20164;-88
2022/12/03 05:34:15;;;;;;;96.80;29.80;;;;;;;-141.97;100.00;47972.72;4974387;28;20168;-87
2022/12/03 05:36:40;;;;;;;86.13;24.00;;;;;;;-141.97;100.00;47993.84;4973768;28;20633;-89
2022/12/03 05:39:06;;;;;;;292.40;113.50;;;;;;;-141.97;100.00;47915.03;4957114;28;20180;-88
2022/12/03 05:44:15;;;;;;;64.70;23.03;;;;;;;-141.97;100.00;47899.66;4974457;28;20235;-89
2022/12/03 05:46:40;;;;;;;87.53;31.83;;;;;;;-141.97;100.00;47857.38;4957215;28;20168;-88
2022/12/03 05:49:05;;;;;;;79.47;25.40;;;;;;;-141.97;100.00;47938.09;4974095;28;20167;-87
2022/12/03 05:51:31;;;;;;;76.37;27.40;;;;;;;-141.97;100.00;47911.19;4973756;28;20203;-88
2022/12/03 05:53:56;;;;;;;74.67;23.63;;;;;;;-141.97;100.00;47957.34;4973959;28;20172;-88
2022/12/03 05:56:22;;;;;;;90.80;30.70;;;;;;;-141.97;100.00;47882.38;4973555;28;20192;-89
2022/12/03 05:58:47;;;;;;;60.87;23.10;;;;;;;-141.97;100.00;47907.34;4957009;28;20759;-88
2022/12/03 06:01:12;;;;;;;50.03;16.63;;;;;;;-141.97;100.00;47884.28;4957067;28;20172;-88
2022/12/03 06:03:38;;;;;;;78.10;33.03;;;;;;;-141.97;100.00;47884.28;4973604;28;20622;-88
2022/12/03 06:06:03;;;;;;;50.87;17.90;;;;;;;-141.97;100.00;47993.84;4973865;28;20160;-88
2022/12/03 06:08:29;;;;;;;184.40;70.37;;;;;;;-141.97;100.00;47926.56;4956020;28;20935;-88
2022/12/03 06:10:54;;;;;;;66.67;26.90;;;;;;;-141.97;100.00;47840.06;4973428;28;20263;-88
2022/12/03 06:13:19;;;;;;;77.77;26.63;;;;;;;-141.97;100.00;47891.97;4955946;28;20509;-88
2022/12/03 06:15:45;;;;;;;84.20;33.67;;;;;;;-141.97;100.00;47915.03;4975024;28;20192;-88
2022/12/03 06:18:10;;;;;;;49.47;17.70;;;;;;;-141.97;100.00;47903.50;4975619;28;20635;-87
2022/12/03 06:20:36;;;;;;;36.20;16.97;;;;;;;-141.97;100.00;47836.22;4959290;28;20701;-88
2022/12/03 06:23:01;;;;;;;81.90;50.50;;;;;;;-141.97;100.00;47793.94;4957616;28;20645;-88
2022/12/03 06:25:27;;;;;;;61.60;34.17;;;;;;;-141.97;100.00;47792.03;4957180;28;20700;-89
2022/12/03 06:27:52;;;;;;;82.47;42.70;;;;;;;-141.97;100.00;47938.09;4956451;28;20675;-88
2022/12/03 06:30:18;;;;;;;104.47;49.03;;;;;;;-141.97;100.00;47874.69;4973226;28;20172;-89
2022/12/03 06:32:43;;;;;;;75.67;37.93;;;;;;;-141.97;100.00;47970.78;4972053;28;20194;-88
2022/12/03 06:35:08;;;;;;;83.37;38.50;;;;;;;-141.97;100.00;47788.19;4960077;28;20167;-89
2022/12/03 06:37:34;;;;;;;50.30;23.77;;;;;;;-141.97;100.00;47807.41;4991061;28;20715;-88
2022/12/03 06:39:59;;;;;;;57.23;27.47;;;;;;;-141.97;100.00;47809.31;4991289;28;20201;-88
2022/12/03 06:42:25;;;;;;;34.90;18.43;;;;;;;-141.97;100.00;47888.13;4992158;28;20177;-88
2022/12/03 06:44:50;;;;;;;43.67;23.63;;;;;;;-141.97;100.00;47792.03;4992450;28;20168;-88
2022/12/03 06:47:15;;;;;;;44.37;25.13;;;;;;;-141.97;100.00;47813.16;4991182;28;20171;-88
2022/12/03 06:49:41;;;;;;;33.63;17.83;;;;;;;-141.97;100.00;47818.94;4998492;28;20186;-87
2022/12/03 06:52:06;;;;;;;31.83;17.23;;;;;;;-141.97;100.00;47926.56;5012419;28;20167;-89
2022/12/03 06:54:32;;;;;;;31.03;15.23;;;;;;;-141.97;100.00;47834.31;5016464;28;20247;-88
2022/12/03 06:56:57;;;;;;;27.93;14.73;;;;;;;-141.97;100.00;47840.06;5000428;28;20286;-88
2022/12/03 06:59:23;;;;;;;35.33;16.43;;;;;;;-141.97;100.00;47799.72;4978768;28;20173;-89
2022/12/03 07:01:48;;;;;;;34.20;16.63;;;;;;;-141.97;100.00;47767.03;4976684;28;20167;-88
2022/12/03 07:04:13;;;;;;;51.73;33.50;;;;;;;-141.97;100.00;47938.09;4976959;28;20706;-87
2022/12/03 07:06:39;;;;;;;69.17;37.37;;;;;;;-141.97;100.00;47884.28;4980093;28;20624;-89
2022/12/03 07:09:04;;;;;;;45.67;26.67;;;;;;;-141.97;100.00;47805.47;4995839;28;20178;-88
2022/12/03 07:11:30;;;;;;;38.10;19.20;;;;;;;-141.97;100.00;47772.78;4977851;28;20163;-89
2022/12/03 07:13:58;;;;;;;41.73;18.50;;;;;;;-141.97;100.00;47945.81;4995104;28;20170;-89
2022/12/03 07:16:24;;;;;;;38.63;17.13;;;;;;;-141.97;100.00;47815.09;4977354;28;20203;-90
2022/12/03 07:18:49;;;;;;;37.30;16.43;;;;;;;-141.97;100.00;47965.03;4993749;28;20643;-90
2022/12/03 07:21:15;;;;;;;32.30;14.37;;;;;;;-141.97;100.00;48038.06;4996425;28;20175;-89
2022/12/03 07:23:40;;;;;;;32.47;13.43;;;;;;;-141.97;100.00;47778.56;4996183;28;20171;-87
2022/12/03 07:26:07;;;;;;;37.73;14.70;;;;;;;-141.97;100.00;47755.50;4994443;28;20270;-88
2022/12/03 07:28:33;;;;;;;39.17;17.33;;;;;;;-141.97;100.00;47936.19;4981216;28;20180;-90
2022/12/03 07:30:58;;;;;;;57.57;27.67;;;;;;;-141.97;100.00;47945.81;4997015;28;20152;-90
2022/12/03 07:33:24;;;;;;;43.67;22.27;;;;;;;-141.97;100.00;47940.03;4996914;28;20175;-89
2022/12/03 07:35:49;;;;;;;40.47;15.97;;;;;;;-141.97;100.00;47849.69;4997415;28;20183;-89
2022/12/03 07:38:15;;;;;;;36.13;16.53;;;;;;;-141.97;100.00;47897.75;5007859;28;20179;-89
2022/12/03 07:40:40;;;;;;;43.17;19.20;;;;;;;-141.97;100.00;47772.78;4997545;28;20538;-90
2022/12/03 07:43:05;;;;;;;59.63;28.63;;;;;;;-141.97;100.00;47893.91;4994079;28;20195;-87
2022/12/03 07:45:31;;;;;;;27.17;13.60;;;;;;;-141.97;100.00;47755.50;4983468;28;20182;-89
2022/12/03 07:47:56;;;;;;;33.77;13.07;;;;;;;-141.97;100.00;47938.09;4981918;28;20330;-89
2022/12/03 07:50:22;;;;;;;34.77;13.53;;;;;;;-141.97;100.00;47755.50;5002568;28;20170;-91
2022/12/03 07:52:47;;;;;;;42.37;19.93;;;;;;;-141.97;100.00;47913.13;5003417;28;20152;-92
2022/12/03 07:55:13;;;;;;;37.00;18.43;;;;;;;-141.97;100.00;47938.09;4984099;28;20206;-91
2022/12/03 07:57:38;;;;;;;36.27;15.83;;;;;;;-141.97;100.00;47926.56;4984216;28;20377;-91
2022/12/03 08:00:05;;;;;;;49.63;29.07;;;;;;;-141.97;100.00;48013.06;4999702;28;20175;-91
2022/12/03 08:02:31;;;;;;;30.03;13.67;;;;;;;-141.97;100.00;47742.03;5002395;28;20220;-91
2022/12/03 08:04:56;;;;;;;34.53;16.93;;;;;;;-141.97;100.00;47949.66;5002331;28;20193;-91
2022/12/03 08:07:22;;;;;;;34.43;15.97;;;;;;;-141.97;100.00;47922.72;4987445;28;20160;-90
2022/12/03 08:09:48;;;;;;;36.73;18.37;;;;;;;-141.97;100.00;47886.22;5003761;28;20164;-87
2022/12/03 08:12:41;;;;;;;114.37;56.63;;;;;;;-141.97;100.00;47876.59;4984538;28;20178;-89
2022/12/03 08:15:11;;;;;;;367.60;160.77;;;;;;;-141.97;100.00;47899.66;4984197;28;20182;-88
2022/12/03 08:17:39;;;;;;;113.80;43.93;;;;;;;-141.97;100.00;48007.31;5002072;28;20206;-88
2022/12/03 08:20:29;;;;;;;87.47;34.10;;;;;;;-141.97;100.00;47909.28;5008996;28;20183;-88
2022/12/03 08:22:56;;;;;;;65.67;25.50;;;;;;;-141.97;100.00;47842.00;5001525;28;20242;-88
2022/12/03 08:25:23;;;;;;;38.63;17.47;;;;;;;-141.97;100.00;47895.81;4997391;28;20289;-87
2022/12/03 08:27:51;;;;;;;56.13;25.00;;;;;;;-141.97;100.00;47826.63;4982068;28;20174;-87
2022/12/03 08:30:17;;;;;;;54.90;24.13;;;;;;;-141.97;100.00;47838.16;5004624;28;20171;-86
2022/12/03 08:32:43;;;;;;;38.70;18.73;;;;;;;-141.97;100.00;47851.59;4989043;28;20198;-86
2022/12/03 08:35:13;;;;;;;41.40;19.57;;;;;;;-141.97;100.00;47988.09;4977948;28;20266;-87
2022/12/03 08:37:38;;;;;;;41.03;20.43;;;;;;;-141.97;100.00;47961.19;4994626;28;20195;-87
2022/12/03 08:40:23;;;;;;;40.17;19.80;;;;;;;-141.97;100.00;47943.88;4988497;28;20186;-86
2022/12/03 08:42:49;;;;;;;37.73;18.43;;;;;;;-141.97;100.00;47811.25;4949769;28;20194;-87
2022/12/03 08:45:38;;;;;;;48.07;23.63;;;;;;;-141.97;100.00;47853.53;4981078;28;20175;-86
2022/12/03 08:48:13;;;;;;;42.20;19.80;;;;;;;-141.97;100.00;47891.97;4997409;28;20175;-88
2022/12/03 08:50:41;;;;;;;36.43;17.30;;;;;;;-141.97;100.00;47863.13;5003943;28;20171;-87
2022/12/03 08:53:12;;;;;;;38.03;18.70;;;;;;;-141.97;100.00;47909.28;5009405;28;20172;-86
2022/12/03 08:55:41;;;;;;;48.70;23.30;;;;;;;-141.97;100.00;47857.38;5001138;28;20175;-83
2022/12/03 08:58:39;;;;;;;44.60;23.17;;;;;;;-141.97;100.00;47865.06;5000433;28;20734;-87
2022/12/03 09:01:11;;;;;;;70.90;36.50;;;;;;;-141.97;100.00;47865.06;5008607;28;20167;-86
2022/12/03 09:03:38;;;;;;;49.93;22.63;;;;;;;-141.97;100.00;47797.78;5003993;28;20171;-86
2022/12/03 09:06:04;;;;;;;41.93;20.03;;;;;;;-141.97;100.00;47924.66;4981849;28;20190;-87
2022/12/03 09:08:30;;;;;;;39.93;20.10;;;;;;;-141.97;100.00;47888.13;5014468;28;20239;-85
2022/12/03 09:11:00;;;;;;;43.10;23.30;;;;;;;-141.97;100.00;47899.66;5012954;28;20164;-85
2022/12/03 09:13:25;;;;;;;44.47;21.43;;;;;;;-141.97;100.00;47930.41;4987117;28;20163;-86
2022/12/03 09:15:51;;;;;;;42.23;22.40;;;;;;;-141.97;100.00;47849.69;5007447;28;20178;-86
2022/12/03 09:18:16;;;;;;;47.17;23.87;;;;;;;-141.97;100.00;47745.88;5012552;28;20167;-86
2022/12/03 09:20:42;;;;;;;41.33;21.80;;;;;;;-141.97;100.00;47993.84;5000961;28;20183;-88
2022/12/03 09:23:07;;;;;;;36.93;20.57;;;;;;;-141.97;100.00;47849.69;5016061;28;20203;-86
2022/12/03 09:25:33;;;;;;;41.37;20.93;;;;;;;-141.97;100.00;47749.72;5007299;28;20261;-85
2022/12/03 09:28:00;;;;;;;38.93;19.90;;;;;;;-141.97;100.00;47788.19;5012523;28;20168;-88
2022/12/03 09:30:25;;;;;;;40.97;23.33;;;;;;;-141.97;100.00;47838.16;5001828;28;20211;-87
2022/12/03 09:32:51;;;;;;;36.93;20.17;;;;;;;-141.97;100.00;47849.69;4997301;28;20167;-87
2022/12/03 09:35:16;;;;;;;34.10;18.50;;;;;;;-141.97;99.13;47763.19;4995830;28;20171;-87
2022/12/03 09:37:42;;;;;;;32.23;17.27;;;;;;;-141.97;98.17;47695.91;4978970;28;20226;-87
2022/12/03 09:40:08;;;;;;;38.63;19.57;;;;;;;-141.97;98.10;47865.06;4996273;28;20254;-88
2022/12/03 09:42:34;;;;;;;40.23;20.60;;;;;;;-141.97;99.37;47872.75;4978586;28;20175;-87
2022/12/03 09:45:02;;;;;;;34.03;18.23;;;;;;;-141.97;99.44;47940.03;4994462;28;20194;-88
2022/12/03 09:47:29;;;;;;;36.07;19.27;;;;;;;-141.97;100.00;47788.19;4994831;28;20174;-87
2022/12/03 09:49:56;;;;;;;42.00;19.87;;;;;;;-141.97;99.98;47941.94;4999066;28;20164;-86
2022/12/03 09:52:26;;;;;;;37.63;18.93;;;;;;;-141.97;99.93;47761.25;4996708;28;20168;-87
2022/12/03 09:54:51;;;;;;;29.70;16.47;;;;;;;-141.97;99.24;47941.94;4992692;28;20176;-88
2022/12/03 09:57:17;;;;;;;33.63;17.97;;;;;;;-141.97;99.26;47895.81;4995095;28;20210;-87
2022/12/03 09:59:43;;;;;;;30.50;16.80;;;;;;;-141.97;97.70;47830.47;4995035;28;20258;-88
2022/12/03 10:02:26;;;;;;;32.20;16.90;;;;;;;-141.97;98.41;47974.63;4994457;28;20603;-88
2022/12/03 10:04:52;;;;;;;40.43;22.13;;;;;;;-141.97;97.88;47784.34;4975816;28;20171;-87
2022/12/03 10:07:17;;;;;;;31.30;17.33;;;;;;;-141.97;97.33;47780.47;4992656;28;20222;-88
2022/12/03 10:09:43;;;;;;;32.60;17.37;;;;;;;-141.97;96.53;47782.41;4992476;28;20171;-87
2022/12/03 10:12:13;;;;;;;33.67;19.53;;;;;;;-141.97;96.70;47826.63;4976607;28;20193;-88
2022/12/03 10:14:40;;;;;;;31.87;17.20;;;;;;;-141.97;96.43;47961.19;4976965;28;20648;-87
2022/12/03 10:17:05;;;;;;;26.27;13.47;;;;;;;-141.97;96.27;47911.19;4997094;28;20395;-88
2022/12/03 10:19:36;;;;;;;32.10;18.60;;;;;;;-141.97;97.96;47899.66;4991603;28;20236;-87
2022/12/03 10:22:02;;;;;;;31.50;17.87;;;;;;;-141.97;97.94;47763.19;5004881;28;20167;-87
2022/12/03 10:24:30;;;;;;;36.87;18.53;;;;;;;-141.97;97.13;47924.66;5005719;28;20199;-87
2022/12/03 10:26:59;;;;;;;32.60;15.53;;;;;;;-141.97;96.69;47957.34;5006318;28;20238;-88
2022/12/03 10:29:28;;;;;;;29.53;16.63;;;;;;;-141.97;96.59;47934.25;4991429;28;20211;-87
2022/12/03 10:31:57;;;;;;;29.93;15.37;;;;;;;-141.97;96.46;47861.22;4989502;28;20293;-88
2022/12/03 10:34:35;;;;;;;28.83;16.83;;;;;;;-141.97;96.23;47895.81;4984066;28;20194;-88
2022/12/03 10:37:21;;;;;;;30.67;15.47;;;;;;;-141.97;96.80;47882.38;4986471;28;20187;-88
2022/12/03 10:40:04;;;;;;;33.57;18.83;;;;;;;-141.97;96.84;47909.28;4991608;28;20175;-87
2022/12/03 10:42:31;;;;;;;42.03;20.30;;;;;;;-141.97;97.42;47876.59;5009554;28;20163;-86
2022/12/03 10:45:18;;;;;;;47.87;22.47;;;;;;;-141.97;97.53;47880.44;4990955;28;20183;-86
2022/12/03 10:48:01;;;;;;;33.60;17.30;;;;;;;-141.97;98.78;47711.28;5010513;28;20156;-88
2022/12/03 10:50:27;;;;;;;154.97;59.97;;;;;;;-141.97;99.07;47786.25;4989480;28;20186;-87
2022/12/03 10:52:52;;;;;;;40.80;19.67;;;;;;;-141.97;99.77;47915.03;5004410;28;20172;-85
2022/12/03 10:55:18;;;;;;;46.87;21.27;;;;;;;-141.97;99.66;47734.34;5003024;28;20171;-87
2022/12/03 10:57:45;;;;;;;40.63;19.13;;;;;;;-141.97;100.00;47797.78;4968223;28;20206;-88
2022/12/03 11:00:18;;;;;;;91.43;38.57;;;;;;;-141.97;100.00;47953.50;5013543;28;20151;-93
2022/12/03 11:02:46;;;;;;;36.87;17.57;;;;;;;-141.97;100.00;47842.00;4992133;28;20164;-88
2022/12/03 11:05:17;;;;;;;51.43;23.17;;;;;;;-141.97;100.00;47978.47;5009529;28;20148;-88
2022/12/03 11:07:43;;;;;;;58.83;22.93;;;;;;;-141.97;100.00;47991.94;4980903;28;20163;-87
2022/12/03 11:10:14;;;;;;;79.27;30.50;;;;;;;-141.97;100.00;47772.78;4991032;28;20171;-87
2022/12/03 11:12:40;;;;;;;68.57;30.17;;;;;;;-141.97;100.00;47836.22;4990827;28;20179;-86
2022/12/03 11:15:13;;;;;;;180.20;60.93;;;;;;;-141.97;100.00;47793.94;4992563;28;20159;-86
2022/12/03 11:17:49;;;;;;;55.80;20.60;;;;;;;-141.97;100.00;47955.41;4992246;28;20191;-86